sensor_id;sensor_type;location;lat;lon;timestamp;pressure;altitude;pressure_sealevel;temperature;humidity
48053;BME280;33824;51.600;5.718;2023-05-03T00:02:21;102720.53;;;6.79;70.51
48053;BME280;33824;51.600;5.718;2023-05-03T00:04:47;102717.97;;;6.78;70.80
48053;BME280;33824;51.600;5.718;2023-05-03T00:07:13;102727.84;;;6.75;70.57
48053;BME280;33824;51.600;5.718;2023-05-03T00:09:38;102722.78;;;6.72;70.65
48053;BME280;33824;51.600;5.718;2023-05-03T00:12:04;102719.34;;;6.70;70.96
48053;BME280;33824;51.600;5.718;2023-05-03T00:14:30;102716.91;;;6.67;70.70
48053;BME280;33824;51.600;5.718;2023-05-03T00:16:56;102714.47;;;6.64;71.01
48053;BME280;33824;51.600;5.718;2023-05-03T00:19:21;102716.56;;;6.59;71.09
48053;BME280;33824;51.600;5.718;2023-05-03T00:21:51;102707.03;;;6.57;71.74
48053;BME280;33824;51.600;5.718;2023-05-03T00:24:17;102714.22;;;6.55;70.93
48053;BME280;33824;51.600;5.718;2023-05-03T00:26:43;102704.06;;;6.49;71.79
48053;BME280;33824;51.600;5.718;2023-05-03T00:29:08;102709.44;;;6.47;71.42
48053;BME280;33824;51.600;5.718;2023-05-03T00:31:34;102708.81;;;6.44;72.33
48053;BME280;33824;51.600;5.718;2023-05-03T00:33:59;102707.22;;;6.41;72.08
48053;BME280;33824;51.600;5.718;2023-05-03T00:36:25;102712.72;;;6.38;72.08
48053;BME280;33824;51.600;5.718;2023-05-03T00:38:51;102707.63;;;6.35;71.54
48053;BME280;33824;51.600;5.718;2023-05-03T00:41:17;102714.91;;;6.32;72.37
48053;BME280;33824;51.600;5.718;2023-05-03T00:43:43;102707.94;;;6.31;71.92
48053;BME280;33824;51.600;5.718;2023-05-03T00:46:08;102717.75;;;6.28;71.95
48053;BME280;33824;51.600;5.718;2023-05-03T00:48:34;102716.25;;;6.24;71.94
48053;BME280;33824;51.600;5.718;2023-05-03T00:51:01;102713.81;;;6.21;72.38
48053;BME280;33824;51.600;5.718;2023-05-03T00:53:26;102714.88;;;6.19;72.51
48053;BME280;33824;51.600;5.718;2023-05-03T00:55:54;102707.97;;;6.16;72.62
48053;BME280;33824;51.600;5.718;2023-05-03T00:58:20;102716.03;;;6.15;72.89
48053;BME280;33824;51.600;5.718;2023-05-03T01:00:46;102715.47;;;6.10;73.80
48053;BME280;33824;51.600;5.718;2023-05-03T01:03:13;102719.91;;;6.09;74.11
48053;BME280;33824;51.600;5.718;2023-05-03T01:05:50;102716.91;;;6.01;73.80
48053;BME280;33824;51.600;5.718;2023-05-03T01:16:18;102715.94;;;5.90;75.98
48053;BME280;33824;51.600;5.718;2023-05-03T01:18:46;102712.22;;;5.92;75.14
48053;BME280;33824;51.600;5.718;2023-05-03T01:21:18;102707.97;;;5.90;75.24
48053;BME280;33824;51.600;5.718;2023-05-03T01:24:10;102712.59;;;5.86;75.35
48053;BME280;33824;51.600;5.718;2023-05-03T01:26:38;102707.78;;;5.64;76.39
48053;BME280;33824;51.600;5.718;2023-05-03T01:29:04;102718.66;;;5.74;75.78
48053;BME280;33824;51.600;5.718;2023-05-03T01:31:52;102718.28;;;5.66;76.52
48053;BME280;33824;51.600;5.718;2023-05-03T01:37:08;102723.09;;;5.73;76.39
48053;BME280;33824;51.600;5.718;2023-05-03T01:39:44;102726.88;;;5.69;76.38
48053;BME280;33824;51.600;5.718;2023-05-03T01:42:13;102730.00;;;5.76;76.64
48053;BME280;33824;51.600;5.718;2023-05-03T01:44:40;102729.91;;;5.77;76.87
48053;BME280;33824;51.600;5.718;2023-05-03T01:47:07;102719.31;;;5.77;76.44
48053;BME280;33824;51.600;5.718;2023-05-03T01:49:32;102725.47;;;5.78;76.50
48053;BME280;33824;51.600;5.718;2023-05-03T01:51:59;102720.34;;;5.75;75.98
48053;BME280;33824;51.600;5.718;2023-05-03T01:54:25;102725.63;;;5.75;76.08
48053;BME280;33824;51.600;5.718;2023-05-03T01:56:50;102730.94;;;5.75;76.54
48053;BME280;33824;51.600;5.718;2023-05-03T01:59:16;102729.34;;;5.72;76.21
48053;BME280;33824;51.600;5.718;2023-05-03T02:01:42;102721.59;;;5.69;76.11
48053;BME280;33824;51.600;5.718;2023-05-03T02:04:07;102724.31;;;5.68;76.44
48053;BME280;33824;51.600;5.718;2023-05-03T02:06:33;102726.13;;;5.67;76.36
48053;BME280;33824;51.600;5.718;2023-05-03T02:08:58;102722.63;;;5.67;76.74
48053;BME280;33824;51.600;5.718;2023-05-03T02:11:24;102728.97;;;5.64;76.51
48053;BME280;33824;51.600;5.718;2023-05-03T02:13:49;102732.53;;;5.63;76.46
48053;BME280;33824;51.600;5.718;2023-05-03T02:16:16;102731.81;;;5.61;77.00
48053;BME280;33824;51.600;5.718;2023-05-03T02:18:42;102733.69;;;5.59;77.01
48053;BME280;33824;51.600;5.718;2023-05-03T02:21:09;102725.84;;;5.58;76.71
48053;BME280;33824;51.600;5.718;2023-05-03T02:23:35;102728.50;;;5.58;76.64
48053;BME280;33824;51.600;5.718;2023-05-03T02:26:01;102729.44;;;5.57;76.85
48053;BME280;33824;51.600;5.718;2023-05-03T02:28:27;102734.84;;;5.55;75.98
48053;BME280;33824;51.600;5.718;2023-05-03T02:30:52;102731.63;;;5.50;76.13
48053;BME280;33824;51.600;5.718;2023-05-03T02:33:18;102729.19;;;5.47;76.54
48053;BME280;33824;51.600;5.718;2023-05-03T02:35:44;102720.28;;;5.48;76.71
48053;BME280;33824;51.600;5.718;2023-05-03T02:38:09;102720.28;;;5.48;76.95
48053;BME280;33824;51.600;5.718;2023-05-03T02:40:35;102721.41;;;5.44;77.85
48053;BME280;33824;51.600;5.718;2023-05-03T02:43:00;102714.44;;;5.43;78.03
48053;BME280;33824;51.600;5.718;2023-05-03T02:45:27;102706.59;;;5.42;77.73
48053;BME280;33824;51.600;5.718;2023-05-03T02:47:52;102706.72;;;5.40;77.24
48053;BME280;33824;51.600;5.718;2023-05-03T02:50:18;102708.50;;;5.40;78.14
48053;BME280;33824;51.600;5.718;2023-05-03T02:52:43;102699.03;;;5.36;78.12
48053;BME280;33824;51.600;5.718;2023-05-03T02:55:09;102695.53;;;5.35;78.57
48053;BME280;33824;51.600;5.718;2023-05-03T02:57:34;102686.03;;;5.32;78.77
48053;BME280;33824;51.600;5.718;2023-05-03T03:00:00;102680.03;;;5.29;79.09
48053;BME280;33824;51.600;5.718;2023-05-03T03:02:26;102672.31;;;5.26;79.01
48053;BME280;33824;51.600;5.718;2023-05-03T03:04:51;102673.28;;;5.25;79.35
48053;BME280;33824;51.600;5.718;2023-05-03T03:07:17;102672.50;;;5.23;79.17
48053;BME280;33824;51.600;5.718;2023-05-03T03:09:43;102667.28;;;5.21;79.41
48053;BME280;33824;51.600;5.718;2023-05-03T03:12:09;102672.69;;;5.20;79.76
48053;BME280;33824;51.600;5.718;2023-05-03T03:14:36;102670.34;;;5.15;79.91
48053;BME280;33824;51.600;5.718;2023-05-03T03:17:06;102671.47;;;5.11;79.92
48053;BME280;33824;51.600;5.718;2023-05-03T03:19:32;102663.44;;;5.13;80.04
48053;BME280;33824;51.600;5.718;2023-05-03T03:21:57;102669.75;;;5.10;79.84
48053;BME280;33824;51.600;5.718;2023-05-03T03:24:23;102677.78;;;5.09;79.62
48053;BME280;33824;51.600;5.718;2023-05-03T03:26:48;102683.16;;;5.07;79.31
48053;BME280;33824;51.600;5.718;2023-05-03T03:29:14;102688.56;;;5.06;79.00
48053;BME280;33824;51.600;5.718;2023-05-03T03:31:40;102693.16;;;5.02;79.48
48053;BME280;33824;51.600;5.718;2023-05-03T03:34:06;102702.72;;;5.05;79.78
48053;BME280;33824;51.600;5.718;2023-05-03T03:36:31;102700.16;;;5.03;79.91
48053;BME280;33824;51.600;5.718;2023-05-03T03:38:57;102698.56;;;5.01;79.69
48053;BME280;33824;51.600;5.718;2023-05-03T03:41:22;102702.25;;;4.98;79.90
48053;BME280;33824;51.600;5.718;2023-05-03T03:43:48;102691.75;;;4.97;80.61
48053;BME280;33824;51.600;5.718;2023-05-03T03:46:13;102696.19;;;4.96;80.06
48053;BME280;33824;51.600;5.718;2023-05-03T03:48:39;102702.53;;;4.94;80.21
48053;BME280;33824;51.600;5.718;2023-05-03T03:51:04;102698.16;;;4.93;80.09
48053;BME280;33824;51.600;5.718;2023-05-03T03:53:30;102697.31;;;4.92;80.37
48053;BME280;33824;51.600;5.718;2023-05-03T03:55:56;102692.88;;;4.93;80.14
48053;BME280;33824;51.600;5.718;2023-05-03T03:58:21;102688.44;;;4.93;79.89
48053;BME280;33824;51.600;5.718;2023-05-03T04:00:47;102692.97;;;4.91;79.70
48053;BME280;33824;51.600;5.718;2023-05-03T04:03:14;102696.84;;;4.86;80.18
48053;BME280;33824;51.600;5.718;2023-05-03T04:05:40;102695.06;;;4.86;80.20
48053;BME280;33824;51.600;5.718;2023-05-03T04:08:05;102693.44;;;4.83;79.48
48053;BME280;33824;51.600;5.718;2023-05-03T04:10:31;102691.81;;;4.81;79.67
48053;BME280;33824;51.600;5.718;2023-05-03T04:12:56;102684.84;;;4.80;79.86
48053;BME280;33824;51.600;5.718;2023-05-03T04:15:22;102700.59;;;4.81;80.30
48053;BME280;33824;51.600;5.718;2023-05-03T04:17:48;102698.81;;;4.82;80.05
48053;BME280;33824;51.600;5.718;2023-05-03T04:20:13;102703.19;;;4.83;79.85
48053;BME280;33824;51.600;5.718;2023-05-03T04:22:41;102703.19;;;4.83;80.56
48053;BME280;33824;51.600;5.718;2023-05-03T04:25:12;102705.91;;;4.81;80.51
48053;BME280;33824;51.600;5.718;2023-05-03T04:27:44;102715.22;;;4.87;80.02
48053;BME280;33824;51.600;5.718;2023-05-03T04:30:10;102718.00;;;4.86;80.65
48053;BME280;33824;51.600;5.718;2023-05-03T04:32:37;102721.09;;;4.92;80.86
48053;BME280;33824;51.600;5.718;2023-05-03T04:35:06;102715.47;;;4.98;81.16
48053;BME280;33824;51.600;5.718;2023-05-03T04:37:38;102718.59;;;5.05;81.15
48053;BME280;33824;51.600;5.718;2023-05-03T04:40:05;102720.84;;;5.11;81.08
48053;BME280;33824;51.600;5.718;2023-05-03T04:42:36;102726.50;;;4.91;82.52
48053;BME280;33824;51.600;5.718;2023-05-03T04:45:03;102726.25;;;5.09;81.81
48053;BME280;33824;51.600;5.718;2023-05-03T04:47:31;102716.72;;;5.21;81.35
48053;BME280;33824;51.600;5.718;2023-05-03T04:49:57;102725.97;;;5.28;81.69
48053;BME280;33824;51.600;5.718;2023-05-03T04:52:24;102732.59;;;5.35;81.97
48053;BME280;33824;51.600;5.718;2023-05-03T04:54:49;102731.06;;;5.45;81.23
48053;BME280;33824;51.600;5.718;2023-05-03T04:57:15;102742.78;;;5.55;80.78
48053;BME280;33824;51.600;5.718;2023-05-03T04:59:41;102736.03;;;5.64;81.04
48053;BME280;33824;51.600;5.718;2023-05-03T05:02:06;102743.31;;;5.74;80.60
48053;BME280;33824;51.600;5.718;2023-05-03T05:04:32;102742.16;;;5.78;80.73
48053;BME280;33824;51.600;5.718;2023-05-03T05:06:58;102748.63;;;5.89;80.97
48053;BME280;33824;51.600;5.718;2023-05-03T05:09:25;102750.69;;;5.98;80.98
48053;BME280;33824;51.600;5.718;2023-05-03T05:11:51;102757.31;;;6.05;81.00
48053;BME280;33824;51.600;5.718;2023-05-03T05:14:16;102757.00;;;6.09;80.50
48053;BME280;33824;51.600;5.718;2023-05-03T05:16:42;102768.31;;;6.25;80.16
48053;BME280;33824;51.600;5.718;2023-05-03T05:19:07;102763.81;;;6.40;80.35
48053;BME280;33824;51.600;5.718;2023-05-03T05:21:33;102771.81;;;6.53;79.83
48053;BME280;33824;51.600;5.718;2023-05-03T05:23:59;102766.84;;;6.61;79.56
48053;BME280;33824;51.600;5.718;2023-05-03T05:26:28;102770.56;;;6.71;79.77
48053;BME280;33824;51.600;5.718;2023-05-03T05:28:54;102764.47;;;6.83;79.33
48053;BME280;33824;51.600;5.718;2023-05-03T05:31:20;102767.31;;;6.93;78.97
48053;BME280;33824;51.600;5.718;2023-05-03T05:33:46;102771.06;;;7.03;79.27
48053;BME280;33824;51.600;5.718;2023-05-03T05:36:13;102774.47;;;7.17;78.58
48053;BME280;33824;51.600;5.718;2023-05-03T05:38:39;102760.59;;;7.27;78.60
48053;BME280;33824;51.600;5.718;2023-05-03T05:41:05;102774.28;;;7.33;78.52
48053;BME280;33824;51.600;5.718;2023-05-03T05:43:30;102767.69;;;7.39;77.97
48053;BME280;33824;51.600;5.718;2023-05-03T05:45:57;102762.59;;;7.48;77.62
48053;BME280;33824;51.600;5.718;2023-05-03T05:48:24;102770.88;;;7.56;77.28
48053;BME280;33824;51.600;5.718;2023-05-03T05:50:50;102772.22;;;7.62;77.18
48053;BME280;33824;51.600;5.718;2023-05-03T05:53:15;102778.47;;;7.73;77.09
48053;BME280;33824;51.600;5.718;2023-05-03T05:55:41;102780.38;;;7.84;77.50
48053;BME280;33824;51.600;5.718;2023-05-03T05:58:06;102778.16;;;7.91;76.63
48053;BME280;33824;51.600;5.718;2023-05-03T06:00:32;102778.44;;;7.99;76.45
48053;BME280;33824;51.600;5.718;2023-05-03T06:02:57;102780.19;;;8.11;77.14
48053;BME280;33824;51.600;5.718;2023-05-03T06:05:23;102775.41;;;8.16;76.75
48053;BME280;33824;51.600;5.718;2023-05-03T06:07:48;102768.63;;;8.12;76.08
48053;BME280;33824;51.600;5.718;2023-05-03T06:10:14;102773.69;;;8.15;75.73
48053;BME280;33824;51.600;5.718;2023-05-03T06:12:40;102768.91;;;8.20;75.55
48053;BME280;33824;51.600;5.718;2023-05-03T06:15:06;102769.00;;;8.31;75.12
48053;BME280;33824;51.600;5.718;2023-05-03T06:17:32;102764.63;;;8.30;74.91
48053;BME280;33824;51.600;5.718;2023-05-03T06:19:58;102767.81;;;8.35;74.69
48053;BME280;33824;51.600;5.718;2023-05-03T06:22:23;102772.97;;;8.49;74.92
48053;BME280;33824;51.600;5.718;2023-05-03T06:24:50;102776.84;;;8.56;74.44
48053;BME280;33824;51.600;5.718;2023-05-03T06:27:15;102771.00;;;8.75;74.59
48053;BME280;33824;51.600;5.718;2023-05-03T06:29:41;102767.16;;;8.79;73.72
48053;BME280;33824;51.600;5.718;2023-05-03T06:32:08;102766.38;;;8.90;73.22
48053;BME280;33824;51.600;5.718;2023-05-03T06:34:34;102763.13;;;8.97;72.79
48053;BME280;33824;51.600;5.718;2023-05-03T06:36:59;102762.78;;;9.13;72.91
48053;BME280;33824;51.600;5.718;2023-05-03T06:39:25;102758.69;;;9.20;72.73
48053;BME280;33824;51.600;5.718;2023-05-03T06:41:50;102761.72;;;9.27;72.33
48053;BME280;33824;51.600;5.718;2023-05-03T06:44:16;102765.94;;;9.40;72.04
48053;BME280;33824;51.600;5.718;2023-05-03T06:46:41;102755.81;;;9.56;71.89
48053;BME280;33824;51.600;5.718;2023-05-03T06:49:07;102745.28;;;9.66;70.91
48053;BME280;33824;51.600;5.718;2023-05-03T06:51:33;102737.28;;;9.77;71.09
48053;BME280;33824;51.600;5.718;2023-05-03T06:53:59;102747.66;;;9.91;70.02
48053;BME280;33824;51.600;5.718;2023-05-03T06:56:31;102742.63;;;9.66;69.46
48053;BME280;33824;51.600;5.718;2023-05-03T06:58:57;102744.75;;;9.94;70.43
48053;BME280;33824;51.600;5.718;2023-05-03T07:01:22;102740.72;;;10.11;70.11
48053;BME280;33824;51.600;5.718;2023-05-03T07:03:48;102739.75;;;10.23;69.28
48053;BME280;33824;51.600;5.718;2023-05-03T07:06:14;102735.44;;;10.43;69.31
48053;BME280;33824;51.600;5.718;2023-05-03T07:08:41;102729.72;;;10.47;68.21
48053;BME280;33824;51.600;5.718;2023-05-03T07:11:06;102726.94;;;10.49;67.65
48053;BME280;33824;51.600;5.718;2023-05-03T07:13:32;102736.50;;;10.51;67.14
48053;BME280;33824;51.600;5.718;2023-05-03T07:15:57;102741.34;;;10.57;66.93
48053;BME280;33824;51.600;5.718;2023-05-03T07:18:24;102733.72;;;10.74;66.97
48053;BME280;33824;51.600;5.718;2023-05-03T07:20:49;102733.72;;;10.74;66.33
48053;BME280;33824;51.600;5.718;2023-05-03T07:23:15;102738.88;;;10.86;66.34
48053;BME280;33824;51.600;5.718;2023-05-03T07:25:44;102735.16;;;10.98;66.19
48053;BME280;33824;51.600;5.718;2023-05-03T07:28:13;102733.59;;;11.17;66.03
48053;BME280;33824;51.600;5.718;2023-05-03T07:30:38;102739.41;;;11.31;65.83
48053;BME280;33824;51.600;5.718;2023-05-03T07:33:04;102746.28;;;11.54;65.42
48053;BME280;33824;51.600;5.718;2023-05-03T07:35:29;102746.56;;;11.51;64.05
48053;BME280;33824;51.600;5.718;2023-05-03T07:37:55;102737.81;;;11.49;64.07
48053;BME280;33824;51.600;5.718;2023-05-03T07:40:21;102737.03;;;11.59;64.00
48053;BME280;33824;51.600;5.718;2023-05-03T07:42:47;102738.25;;;11.54;63.21
48053;BME280;33824;51.600;5.718;2023-05-03T07:45:12;102726.88;;;11.52;63.06
48053;BME280;33824;51.600;5.718;2023-05-03T07:47:38;102721.97;;;11.57;62.89
48053;BME280;33824;51.600;5.718;2023-05-03T07:50:05;102725.25;;;11.71;63.31
48053;BME280;33824;51.600;5.718;2023-05-03T07:52:38;102724.63;;;11.88;62.64
48053;BME280;33824;51.600;5.718;2023-05-03T07:55:05;102710.88;;;12.02;62.13
48053;BME280;33824;51.600;5.718;2023-05-03T07:57:31;102709.50;;;12.17;62.34
48053;BME280;33824;51.600;5.718;2023-05-03T07:59:57;102700.19;;;12.12;61.18
48053;BME280;33824;51.600;5.718;2023-05-03T08:02:22;102705.81;;;12.09;60.85
48053;BME280;33824;51.600;5.718;2023-05-03T08:04:48;102697.94;;;12.17;60.76
48053;BME280;33824;51.600;5.718;2023-05-03T08:07:14;102696.00;;;12.28;60.18
48053;BME280;33824;51.600;5.718;2023-05-03T08:09:40;102696.25;;;12.44;60.66
48053;BME280;33824;51.600;5.718;2023-05-03T08:12:06;102682.00;;;12.63;60.81
48053;BME280;33824;51.600;5.718;2023-05-03T08:14:31;102684.81;;;12.81;60.20
48053;BME280;33824;51.600;5.718;2023-05-03T08:17:00;102686.34;;;12.93;60.13
48053;BME280;33824;51.600;5.718;2023-05-03T08:19:26;102687.03;;;12.95;59.79
48053;BME280;33824;51.600;5.718;2023-05-03T08:21:54;102678.81;;;13.06;58.27
48053;BME280;33824;51.600;5.718;2023-05-03T08:24:20;102681.69;;;12.95;57.39
48053;BME280;33824;51.600;5.718;2023-05-03T08:26:46;102668.84;;;12.98;57.21
48053;BME280;33824;51.600;5.718;2023-05-03T08:29:15;102675.75;;;13.11;57.92
48053;BME280;33824;51.600;5.718;2023-05-03T08:31:41;102679.56;;;12.98;57.47
48053;BME280;33824;51.600;5.718;2023-05-03T08:34:07;102683.19;;;13.07;56.64
48053;BME280;33824;51.600;5.718;2023-05-03T08:36:35;102677.81;;;13.26;57.33
48053;BME280;33824;51.600;5.718;2023-05-03T08:39:03;102674.81;;;13.29;56.40
48053;BME280;33824;51.600;5.718;2023-05-03T08:41:32;102675.81;;;13.28;56.45
48053;BME280;33824;51.600;5.718;2023-05-03T08:43:59;102670.56;;;13.36;55.97
48053;BME280;33824;51.600;5.718;2023-05-03T08:46:26;102672.88;;;13.22;54.95
48053;BME280;33824;51.600;5.718;2023-05-03T08:48:53;102673.72;;;13.22;55.24
48053;BME280;33824;51.600;5.718;2023-05-03T08:51:20;102671.50;;;13.18;54.67
48053;BME280;33824;51.600;5.718;2023-05-03T08:53:46;102667.56;;;13.12;54.78
48053;BME280;33824;51.600;5.718;2023-05-03T08:56:27;102666.03;;;13.00;54.25
48053;BME280;33824;51.600;5.718;2023-05-03T08:58:54;102660.13;;;12.96;53.91
48053;BME280;33824;51.600;5.718;2023-05-03T09:01:20;102651.03;;;13.17;54.77
48053;BME280;33824;51.600;5.718;2023-05-03T09:03:49;102647.78;;;13.23;53.92
48053;BME280;33824;51.600;5.718;2023-05-03T09:06:20;102657.53;;;13.24;53.93
48053;BME280;33824;51.600;5.718;2023-05-03T09:08:46;102658.97;;;13.45;54.49
48053;BME280;33824;51.600;5.718;2023-05-03T09:11:30;102657.69;;;13.50;53.12
48053;BME280;33824;51.600;5.718;2023-05-03T09:14:09;102645.75;;;13.62;53.51
48053;BME280;33824;51.600;5.718;2023-05-03T09:16:35;102665.50;;;13.88;53.45
48053;BME280;33824;51.600;5.718;2023-05-03T09:19:03;102663.50;;;13.90;52.24
48053;BME280;33824;51.600;5.718;2023-05-03T09:21:30;102670.06;;;13.78;52.09
48053;BME280;33824;51.600;5.718;2023-05-03T09:23:56;102672.91;;;13.94;52.53
48053;BME280;33824;51.600;5.718;2023-05-03T09:26:30;102685.38;;;13.85;51.21
48053;BME280;33824;51.600;5.718;2023-05-03T09:28:57;102676.84;;;14.00;52.30
48053;BME280;33824;51.600;5.718;2023-05-03T09:31:23;102674.09;;;14.09;51.77
48053;BME280;33824;51.600;5.718;2023-05-03T09:33:49;102671.63;;;13.98;51.12
48053;BME280;33824;51.600;5.718;2023-05-03T09:36:16;102671.97;;;13.85;51.51
48053;BME280;33824;51.600;5.718;2023-05-03T09:38:41;102669.03;;;13.88;51.45
48053;BME280;33824;51.600;5.718;2023-05-03T09:41:07;102666.16;;;13.90;51.10
48053;BME280;33824;51.600;5.718;2023-05-03T09:43:33;102671.25;;;14.11;51.96
48053;BME280;33824;51.600;5.718;2023-05-03T09:46:11;102668.41;;;14.30;49.97
48053;BME280;33824;51.600;5.718;2023-05-03T09:48:38;102654.47;;;14.44;50.88
48053;BME280;33824;51.600;5.718;2023-05-03T09:51:04;102663.53;;;14.69;51.07
48053;BME280;33824;51.600;5.718;2023-05-03T09:53:32;102656.84;;;14.91;51.04
48053;BME280;33824;51.600;5.718;2023-05-03T09:56:00;102657.34;;;14.94;50.15
48053;BME280;33824;51.600;5.718;2023-05-03T09:58:26;102659.56;;;14.99;50.34
48053;BME280;33824;51.600;5.718;2023-05-03T10:00:55;102648.84;;;15.07;50.05
48053;BME280;33824;51.600;5.718;2023-05-03T10:03:41;102638.91;;;14.99;49.18
48053;BME280;33824;51.600;5.718;2023-05-03T10:06:39;102651.38;;;15.08;48.51
48053;BME280;33824;51.600;5.718;2023-05-03T10:09:27;102646.72;;;15.18;48.61
48053;BME280;33824;51.600;5.718;2023-05-03T10:11:57;102647.84;;;15.42;50.58
48053;BME280;33824;51.600;5.718;2023-05-03T10:14:23;102648.50;;;15.35;48.76
48053;BME280;33824;51.600;5.718;2023-05-03T10:16:58;102642.75;;;15.30;49.20
48053;BME280;33824;51.600;5.718;2023-05-03T10:19:33;102638.00;;;15.50;48.89
48053;BME280;33824;51.600;5.718;2023-05-03T10:22:07;102642.19;;;15.19;48.30
48053;BME280;33824;51.600;5.718;2023-05-03T10:24:33;102646.91;;;15.17;49.20
48053;BME280;33824;51.600;5.718;2023-05-03T10:27:00;102635.69;;;15.29;48.68
48053;BME280;33824;51.600;5.718;2023-05-03T10:32:05;102647.13;;;15.31;48.29
48053;BME280;33824;51.600;5.718;2023-05-03T10:35:06;102645.78;;;15.27;47.98
48053;BME280;33824;51.600;5.718;2023-05-03T10:37:34;102646.81;;;15.34;47.97
48053;BME280;33824;51.600;5.718;2023-05-03T10:40:05;102642.13;;;15.36;47.79
48053;BME280;33824;51.600;5.718;2023-05-03T10:42:31;102644.06;;;15.52;47.98
48053;BME280;33824;51.600;5.718;2023-05-03T10:44:56;102637.00;;;15.51;47.69
48053;BME280;33824;51.600;5.718;2023-05-03T10:47:25;102640.56;;;15.60;47.59
48053;BME280;33824;51.600;5.718;2023-05-03T10:55:08;102640.06;;;15.72;47.41
48053;BME280;33824;51.600;5.718;2023-05-03T10:57:36;102641.00;;;16.05;47.35
48053;BME280;33824;51.600;5.718;2023-05-03T11:00:03;102641.34;;;16.26;46.74
48053;BME280;33824;51.600;5.718;2023-05-03T11:02:41;102636.63;;;16.04;46.21
48053;BME280;33824;51.600;5.718;2023-05-03T11:05:08;102634.03;;;15.70;47.37
48053;BME280;33824;51.600;5.718;2023-05-03T11:07:37;102635.56;;;15.81;47.68
48053;BME280;33824;51.600;5.718;2023-05-03T11:10:16;102615.75;;;15.90;46.23
48053;BME280;33824;51.600;5.718;2023-05-03T11:12:42;102628.66;;;15.70;47.86
48053;BME280;33824;51.600;5.718;2023-05-03T11:15:08;102622.06;;;15.57;47.75
48053;BME280;33824;51.600;5.718;2023-05-03T11:17:37;102609.72;;;15.46;48.32
48053;BME280;33824;51.600;5.718;2023-05-03T11:20:06;102612.03;;;15.91;48.19
48053;BME280;33824;51.600;5.718;2023-05-03T11:22:36;102609.53;;;15.90;47.11
48053;BME280;33824;51.600;5.718;2023-05-03T11:25:02;102614.19;;;15.79;47.58
48053;BME280;33824;51.600;5.718;2023-05-03T11:27:27;102600.75;;;15.79;47.70
48053;BME280;33824;51.600;5.718;2023-05-03T11:29:53;102597.75;;;15.91;48.06
48053;BME280;33824;51.600;5.718;2023-05-03T11:32:26;102602.78;;;15.77;48.48
48053;BME280;33824;51.600;5.718;2023-05-03T11:34:52;102599.78;;;15.89;47.28
48053;BME280;33824;51.600;5.718;2023-05-03T11:37:17;102597.41;;;16.02;47.38
48053;BME280;33824;51.600;5.718;2023-05-03T11:39:43;102591.53;;;15.98;46.72
48053;BME280;33824;51.600;5.718;2023-05-03T11:42:08;102591.88;;;16.03;47.11
48053;BME280;33824;51.600;5.718;2023-05-03T11:44:34;102583.97;;;16.26;47.33
48053;BME280;33824;51.600;5.718;2023-05-03T11:47:02;102592.22;;;16.08;47.42
48053;BME280;33824;51.600;5.718;2023-05-03T11:49:28;102580.63;;;16.16;46.54
48053;BME280;33824;51.600;5.718;2023-05-03T11:51:54;102578.44;;;16.11;46.54
48053;BME280;33824;51.600;5.718;2023-05-03T11:54:21;102558.22;;;15.91;46.32
48053;BME280;33824;51.600;5.718;2023-05-03T11:56:47;102564.97;;;15.95;46.05
48053;BME280;33824;51.600;5.718;2023-05-03T11:59:13;102566.31;;;16.15;46.78
48053;BME280;33824;51.600;5.718;2023-05-03T12:01:40;102551.69;;;16.18;46.24
48053;BME280;33824;51.600;5.718;2023-05-03T12:04:05;102564.47;;;15.92;46.48
48053;BME280;33824;51.600;5.718;2023-05-03T12:06:32;102552.88;;;16.07;46.58
48053;BME280;33824;51.600;5.718;2023-05-03T12:09:00;102555.72;;;16.06;45.56
48053;BME280;33824;51.600;5.718;2023-05-03T12:11:27;102555.91;;;16.04;46.21
48053;BME280;33824;51.600;5.718;2023-05-03T12:13:57;102554.03;;;16.21;45.60
48053;BME280;33824;51.600;5.718;2023-05-03T12:16:23;102557.53;;;16.46;45.07
48053;BME280;33824;51.600;5.718;2023-05-03T12:18:57;102549.31;;;16.47;42.29
48053;BME280;33824;51.600;5.718;2023-05-03T12:21:44;102539.41;;;16.31;43.17
48053;BME280;33824;51.600;5.718;2023-05-03T12:24:10;102536.03;;;16.13;44.56
48053;BME280;33824;51.600;5.718;2023-05-03T12:26:38;102530.66;;;16.21;44.73
48053;BME280;33824;51.600;5.718;2023-05-03T12:29:04;102533.97;;;16.48;44.62
48053;BME280;33824;51.600;5.718;2023-05-03T12:31:29;102533.09;;;16.71;44.06
48053;BME280;33824;51.600;5.718;2023-05-03T12:33:55;102527.56;;;16.65;43.87
48053;BME280;33824;51.600;5.718;2023-05-03T12:36:20;102515.09;;;16.72;43.33
48053;BME280;33824;51.600;5.718;2023-05-03T12:38:46;102525.53;;;16.67;43.43
48053;BME280;33824;51.600;5.718;2023-05-03T12:41:12;102518.56;;;16.89;42.14
48053;BME280;33824;51.600;5.718;2023-05-03T12:43:38;102507.63;;;16.82;42.72
48053;BME280;33824;51.600;5.718;2023-05-03T12:46:03;102506.25;;;16.86;41.72
48053;BME280;33824;51.600;5.718;2023-05-03T12:48:29;102497.34;;;17.16;41.97
48053;BME280;33824;51.600;5.718;2023-05-03T12:50:55;102494.06;;;17.06;42.34
48053;BME280;33824;51.600;5.718;2023-05-03T12:53:21;102491.91;;;16.94;41.27
48053;BME280;33824;51.600;5.718;2023-05-03T12:55:47;102495.66;;;16.93;42.06
48053;BME280;33824;51.600;5.718;2023-05-03T12:58:13;102478.75;;;17.30;41.25
48053;BME280;33824;51.600;5.718;2023-05-03T13:00:38;102478.69;;;17.15;41.18
48053;BME280;33824;51.600;5.718;2023-05-03T13:03:04;102479.59;;;16.99;41.50
48053;BME280;33824;51.600;5.718;2023-05-03T13:05:30;102477.00;;;17.14;41.42
48053;BME280;33824;51.600;5.718;2023-05-03T13:07:55;102470.19;;;17.26;42.20
48053;BME280;33824;51.600;5.718;2023-05-03T13:10:23;102464.81;;;17.49;41.82
48053;BME280;33824;51.600;5.718;2023-05-03T13:12:51;102465.03;;;17.39;41.36
48053;BME280;33824;51.600;5.718;2023-05-03T13:15:18;102449.56;;;17.10;39.98